sensor_id;sensor_type;location;lat;lon;timestamp;P1;durP1;ratioP1;P2;durP2;ratioP2
40288;SDS011;28991;52.028;5.526;2023-04-24T00:00:40;0.43;;;0.40;;
40288;SDS011;28991;52.028;5.526;2023-04-24T00:03:06;0.30;;;0.30;;
40288;SDS011;28991;52.028;5.526;2023-04-24T00:05:32;0.28;;;0.28;;
40288;SDS011;28991;52.028;5.526;2023-04-24T00:07:57;0.40;;;0.40;;
40288;SDS011;28991;52.028;5.526;2023-04-24T00:10:23;0.82;;;0.38;;
40288;SDS011;28991;52.028;5.526;2023-04-24T00:12:49;0.20;;;0.20;;
40288;SDS011;28991;52.028;5.526;2023-04-24T00:15:14;0.30;;;0.30;;
40288;SDS011;28991;52.028;5.526;2023-04-24T00:17:40;0.95;;;0.40;;
40288;SDS011;28991;52.028;5.526;2023-04-24T00:20:06;0.22;;;0.22;;
40288;SDS011;28991;52.028;5.526;2023-04-24T00:22:32;0.30;;;0.30;;
40288;SDS011;28991;52.028;5.526;2023-04-24T00:24:57;0.35;;;0.30;;
40288;SDS011;28991;52.028;5.526;2023-04-24T00:27:23;0.30;;;0.30;;
40288;SDS011;28991;52.028;5.526;2023-04-24T00:29:49;0.30;;;0.30;;
40288;SDS011;28991;52.028;5.526;2023-04-24T00:32:14;0.30;;;0.30;;
40288;SDS011;28991;52.028;5.526;2023-04-24T00:34:40;0.30;;;0.30;;
40288;SDS011;28991;52.028;5.526;2023-04-24T00:37:06;0.75;;;0.32;;
40288;SDS011;28991;52.028;5.526;2023-04-24T00:39:32;0.30;;;0.30;;
40288;SDS011;28991;52.028;5.526;2023-04-24T00:41:58;0.45;;;0.38;;
40288;SDS011;28991;52.028;5.526;2023-04-24T00:44:24;0.30;;;0.30;;
40288;SDS011;28991;52.028;5.526;2023-04-24T00:46:49;0.25;;;0.25;;
40288;SDS011;28991;52.028;5.526;2023-04-24T00:49:19;0.38;;;0.32;;
40288;SDS011;28991;52.028;5.526;2023-04-24T00:51:45;1.30;;;0.30;;
40288;SDS011;28991;52.028;5.526;2023-04-24T00:54:12;0.35;;;0.35;;
40288;SDS011;28991;52.028;5.526;2023-04-24T00:56:38;0.40;;;0.40;;
40288;SDS011;28991;52.028;5.526;2023-04-24T00:59:05;0.30;;;0.30;;
40288;SDS011;28991;52.028;5.526;2023-04-24T01:01:31;0.30;;;0.30;;
40288;SDS011;28991;52.028;5.526;2023-04-24T01:03:57;0.20;;;0.20;;
40288;SDS011;28991;52.028;5.526;2023-04-24T01:06:23;0.20;;;0.20;;
40288;SDS011;28991;52.028;5.526;2023-04-24T01:08:53;0.25;;;0.25;;
40288;SDS011;28991;52.028;5.526;2023-04-24T01:11:19;0.30;;;0.30;;
40288;SDS011;28991;52.028;5.526;2023-04-24T01:13:49;0.25;;;0.25;;
40288;SDS011;28991;52.028;5.526;2023-04-24T01:16:15;0.20;;;0.20;;
40288;SDS011;28991;52.028;5.526;2023-04-24T01:18:42;0.30;;;0.30;;
40288;SDS011;28991;52.028;5.526;2023-04-24T01:21:08;0.20;;;0.20;;
40288;SDS011;28991;52.028;5.526;2023-04-24T01:23:34;0.20;;;0.20;;
40288;SDS011;28991;52.028;5.526;2023-04-24T01:26:00;0.45;;;0.38;;
40288;SDS011;28991;52.028;5.526;2023-04-24T01:28:26;0.20;;;0.20;;
40288;SDS011;28991;52.028;5.526;2023-04-24T01:30:52;0.20;;;0.20;;
40288;SDS011;28991;52.028;5.526;2023-04-24T01:33:18;0.30;;;0.30;;
40288;SDS011;28991;52.028;5.526;2023-04-24T01:35:46;0.20;;;0.20;;
40288;SDS011;28991;52.028;5.526;2023-04-24T01:38:12;0.32;;;0.32;;
40288;SDS011;28991;52.028;5.526;2023-04-24T01:40:38;0.30;;;0.30;;
40288;SDS011;28991;52.028;5.526;2023-04-24T01:43:04;0.52;;;0.40;;
40288;SDS011;28991;52.028;5.526;2023-04-24T01:45:30;0.50;;;0.22;;
40288;SDS011;28991;52.028;5.526;2023-04-24T01:47:56;0.20;;;0.20;;
40288;SDS011;28991;52.028;5.526;2023-04-24T01:50:22;0.25;;;0.25;;
40288;SDS011;28991;52.028;5.526;2023-04-24T01:52:47;0.22;;;0.22;;
40288;SDS011;28991;52.028;5.526;2023-04-24T01:55:13;0.20;;;0.20;;
40288;SDS011;28991;52.028;5.526;2023-04-24T01:57:39;0.20;;;0.20;;
40288;SDS011;28991;52.028;5.526;2023-04-24T02:00:05;0.20;;;0.20;;
40288;SDS011;28991;52.028;5.526;2023-04-24T02:02:32;0.30;;;0.30;;
40288;SDS011;28991;52.028;5.526;2023-04-24T02:04:57;0.20;;;0.20;;
40288;SDS011;28991;52.028;5.526;2023-04-24T02:07:23;0.30;;;0.30;;
40288;SDS011;28991;52.028;5.526;2023-04-24T02:09:49;0.30;;;0.30;;
40288;SDS011;28991;52.028;5.526;2023-04-24T02:12:15;0.30;;;0.30;;
40288;SDS011;28991;52.028;5.526;2023-04-24T02:14:42;0.30;;;0.30;;
40288;SDS011;28991;52.028;5.526;2023-04-24T02:17:08;0.20;;;0.20;;
40288;SDS011;28991;52.028;5.526;2023-04-24T02:19:34;0.30;;;0.30;;
40288;SDS011;28991;52.028;5.526;2023-04-24T02:21:59;0.20;;;0.20;;
40288;SDS011;28991;52.028;5.526;2023-04-24T02:24:25;0.30;;;0.30;;
40288;SDS011;28991;52.028;5.526;2023-04-24T02:26:51;0.20;;;0.20;;
40288;SDS011;28991;52.028;5.526;2023-04-24T02:29:16;0.25;;;0.25;;
40288;SDS011;28991;52.028;5.526;2023-04-24T02:31:42;0.22;;;0.22;;
40288;SDS011;28991;52.028;5.526;2023-04-24T02:34:08;0.30;;;0.30;;
40288;SDS011;28991;52.028;5.526;2023-04-24T02:36:33;0.20;;;0.20;;
40288;SDS011;28991;52.028;5.526;2023-04-24T02:38:59;0.30;;;0.30;;
40288;SDS011;28991;52.028;5.526;2023-04-24T02:41:26;0.20;;;0.20;;
40288;SDS011;28991;52.028;5.526;2023-04-24T02:43:56;0.20;;;0.20;;
40288;SDS011;28991;52.028;5.526;2023-04-24T02:46:22;0.40;;;0.40;;
40288;SDS011;28991;52.028;5.526;2023-04-24T02:48:48;0.20;;;0.20;;
40288;SDS011;28991;52.028;5.526;2023-04-24T02:51:13;0.28;;;0.20;;
40288;SDS011;28991;52.028;5.526;2023-04-24T02:53:39;0.30;;;0.30;;
40288;SDS011;28991;52.028;5.526;2023-04-24T02:56:05;0.30;;;0.30;;
40288;SDS011;28991;52.028;5.526;2023-04-24T02:58:30;0.20;;;0.20;;
40288;SDS011;28991;52.028;5.526;2023-04-24T03:00:56;0.30;;;0.30;;
40288;SDS011;28991;52.028;5.526;2023-04-24T03:03:21;0.20;;;0.20;;
40288;SDS011;28991;52.028;5.526;2023-04-24T03:05:47;0.40;;;0.40;;
40288;SDS011;28991;52.028;5.526;2023-04-24T03:08:13;0.40;;;0.40;;
40288;SDS011;28991;52.028;5.526;2023-04-24T03:10:39;0.30;;;0.30;;
40288;SDS011;28991;52.028;5.526;2023-04-24T03:13:05;0.22;;;0.22;;
40288;SDS011;28991;52.028;5.526;2023-04-24T03:15:30;0.20;;;0.20;;
40288;SDS011;28991;52.028;5.526;2023-04-24T03:17:56;0.30;;;0.30;;
40288;SDS011;28991;52.028;5.526;2023-04-24T03:20:22;0.30;;;0.30;;
40288;SDS011;28991;52.028;5.526;2023-04-24T03:22:47;0.30;;;0.30;;
40288;SDS011;28991;52.028;5.526;2023-04-24T03:25:13;0.20;;;0.20;;
40288;SDS011;28991;52.028;5.526;2023-04-24T03:27:38;0.30;;;0.22;;
40288;SDS011;28991;52.028;5.526;2023-04-24T03:30:05;0.30;;;0.30;;
40288;SDS011;28991;52.028;5.526;2023-04-24T03:32:31;0.32;;;0.30;;
40288;SDS011;28991;52.028;5.526;2023-04-24T03:34:57;0.32;;;0.32;;
40288;SDS011;28991;52.028;5.526;2023-04-24T03:37:22;0.28;;;0.28;;
40288;SDS011;28991;52.028;5.526;2023-04-24T03:39:48;0.30;;;0.30;;
40288;SDS011;28991;52.028;5.526;2023-04-24T03:42:13;0.38;;;0.38;;
40288;SDS011;28991;52.028;5.526;2023-04-24T03:44:39;0.28;;;0.28;;
40288;SDS011;28991;52.028;5.526;2023-04-24T03:47:05;0.20;;;0.20;;
40288;SDS011;28991;52.028;5.526;2023-04-24T03:49:31;0.30;;;0.20;;
40288;SDS011;28991;52.028;5.526;2023-04-24T03:51:56;0.20;;;0.20;;
40288;SDS011;28991;52.028;5.526;2023-04-24T03:54:22;0.22;;;0.22;;
40288;SDS011;28991;52.028;5.526;2023-04-24T03:56:47;0.30;;;0.30;;
40288;SDS011;28991;52.028;5.526;2023-04-24T03:59:13;0.30;;;0.30;;
40288;SDS011;28991;52.028;5.526;2023-04-24T04:01:38;0.22;;;0.22;;
40288;SDS011;28991;52.028;5.526;2023-04-24T04:04:04;0.20;;;0.20;;
40288;SDS011;28991;52.028;5.526;2023-04-24T04:06:30;0.30;;;0.30;;
40288;SDS011;28991;52.028;5.526;2023-04-24T04:08:56;0.30;;;0.30;;
40288;SDS011;28991;52.028;5.526;2023-04-24T04:11:22;0.20;;;0.20;;
40288;SDS011;28991;52.028;5.526;2023-04-24T04:13:48;0.30;;;0.30;;
40288;SDS011;28991;52.028;5.526;2023-04-24T04:16:13;0.30;;;0.30;;
40288;SDS011;28991;52.028;5.526;2023-04-24T04:18:41;0.15;;;0.15;;
40288;SDS011;28991;52.028;5.526;2023-04-24T04:21:07;0.10;;;0.10;;
40288;SDS011;28991;52.028;5.526;2023-04-24T04:23:33;0.30;;;0.30;;
40288;SDS011;28991;52.028;5.526;2023-04-24T04:25:58;0.30;;;0.30;;
40288;SDS011;28991;52.028;5.526;2023-04-24T04:28:24;0.30;;;0.30;;
40288;SDS011;28991;52.028;5.526;2023-04-24T04:30:50;0.30;;;0.30;;
40288;SDS011;28991;52.028;5.526;2023-04-24T04:33:19;0.30;;;0.30;;
40288;SDS011;28991;52.028;5.526;2023-04-24T04:35:45;0.30;;;0.30;;
40288;SDS011;28991;52.028;5.526;2023-04-24T04:38:14;0.30;;;0.30;;
40288;SDS011;28991;52.028;5.526;2023-04-24T04:40:40;0.20;;;0.20;;
40288;SDS011;28991;52.028;5.526;2023-04-24T04:43:06;0.20;;;0.20;;
40288;SDS011;28991;52.028;5.526;2023-04-24T04:45:31;0.30;;;0.30;;
40288;SDS011;28991;52.028;5.526;2023-04-24T04:47:59;0.25;;;0.25;;
40288;SDS011;28991;52.028;5.526;2023-04-24T04:50:28;0.20;;;0.20;;
40288;SDS011;28991;52.028;5.526;2023-04-24T04:52:54;0.30;;;0.30;;
40288;SDS011;28991;52.028;5.526;2023-04-24T04:55:19;0.20;;;0.20;;
40288;SDS011;28991;52.028;5.526;2023-04-24T04:57:48;0.20;;;0.20;;
40288;SDS011;28991;52.028;5.526;2023-04-24T05:00:13;0.73;;;0.68;;
40288;SDS011;28991;52.028;5.526;2023-04-24T05:02:40;0.52;;;0.52;;
40288;SDS011;28991;52.028;5.526;2023-04-24T05:05:06;0.20;;;0.20;;
40288;SDS011;28991;52.028;5.526;2023-04-24T05:07:32;0.30;;;0.30;;
40288;SDS011;28991;52.028;5.526;2023-04-24T05:09:58;0.50;;;0.40;;
40288;SDS011;28991;52.028;5.526;2023-04-24T05:12:23;0.52;;;0.35;;
40288;SDS011;28991;52.028;5.526;2023-04-24T05:14:49;0.30;;;0.30;;
40288;SDS011;28991;52.028;5.526;2023-04-24T05:17:15;0.20;;;0.20;;
40288;SDS011;28991;52.028;5.526;2023-04-24T05:19:41;0.40;;;0.40;;
40288;SDS011;28991;52.028;5.526;2023-04-24T05:22:07;0.60;;;0.32;;
40288;SDS011;28991;52.028;5.526;2023-04-24T05:24:34;1.85;;;0.38;;
40288;SDS011;28991;52.028;5.526;2023-04-24T05:27:03;0.40;;;0.40;;
40288;SDS011;28991;52.028;5.526;2023-04-24T05:29:32;1.15;;;0.40;;
40288;SDS011;28991;52.028;5.526;2023-04-24T05:31:58;0.32;;;0.32;;
40288;SDS011;28991;52.028;5.526;2023-04-24T05:34:24;0.30;;;0.30;;
40288;SDS011;28991;52.028;5.526;2023-04-24T05:36:50;0.22;;;0.22;;
40288;SDS011;28991;52.028;5.526;2023-04-24T05:39:16;0.40;;;0.40;;
40288;SDS011;28991;52.028;5.526;2023-04-24T05:41:41;0.45;;;0.30;;
40288;SDS011;28991;52.028;5.526;2023-04-24T05:44:07;1.88;;;0.40;;
40288;SDS011;28991;52.028;5.526;2023-04-24T05:46:33;0.30;;;0.20;;
40288;SDS011;28991;52.028;5.526;2023-04-24T05:48:59;0.52;;;0.20;;
40288;SDS011;28991;52.028;5.526;2023-04-24T05:51:24;0.20;;;0.20;;
40288;SDS011;28991;52.028;5.526;2023-04-24T05:53:50;0.20;;;0.20;;
40288;SDS011;28991;52.028;5.526;2023-04-24T05:56:16;0.10;;;0.10;;
40288;SDS011;28991;52.028;5.526;2023-04-24T05:58:42;0.10;;;0.10;;
40288;SDS011;28991;52.028;5.526;2023-04-24T06:01:08;0.25;;;0.25;;
40288;SDS011;28991;52.028;5.526;2023-04-24T06:03:34;0.20;;;0.20;;
40288;SDS011;28991;52.028;5.526;2023-04-24T06:06:00;0.38;;;0.30;;
40288;SDS011;28991;52.028;5.526;2023-04-24T06:08:25;0.20;;;0.20;;
40288;SDS011;28991;52.028;5.526;2023-04-24T06:10:51;0.30;;;0.30;;
40288;SDS011;28991;52.028;5.526;2023-04-24T06:13:16;0.20;;;0.20;;
40288;SDS011;28991;52.028;5.526;2023-04-24T06:15:43;0.20;;;0.20;;
40288;SDS011;28991;52.028;5.526;2023-04-24T06:18:09;0.20;;;0.20;;
40288;SDS011;28991;52.028;5.526;2023-04-24T06:20:37;2.50;;;0.35;;
40288;SDS011;28991;52.028;5.526;2023-04-24T06:23:03;0.20;;;0.20;;
40288;SDS011;28991;52.028;5.526;2023-04-24T06:25:29;0.22;;;0.22;;
40288;SDS011;28991;52.028;5.526;2023-04-24T06:27:55;2.85;;;0.40;;
40288;SDS011;28991;52.028;5.526;2023-04-24T06:30:21;0.55;;;0.45;;
40288;SDS011;28991;52.028;5.526;2023-04-24T06:32:47;1.40;;;0.30;;
40288;SDS011;28991;52.028;5.526;2023-04-24T06:35:13;0.25;;;0.20;;
40288;SDS011;28991;52.028;5.526;2023-04-24T06:37:39;0.40;;;0.30;;
40288;SDS011;28991;52.028;5.526;2023-04-24T06:40:06;0.43;;;0.22;;
40288;SDS011;28991;52.028;5.526;2023-04-24T06:42:32;1.17;;;0.30;;
40288;SDS011;28991;52.028;5.526;2023-04-24T06:44:57;0.30;;;0.30;;
40288;SDS011;28991;52.028;5.526;2023-04-24T06:47:24;0.35;;;0.28;;
40288;SDS011;28991;52.028;5.526;2023-04-24T06:49:49;0.75;;;0.73;;
40288;SDS011;28991;52.028;5.526;2023-04-24T06:52:17;0.65;;;0.20;;
40288;SDS011;28991;52.028;5.526;2023-04-24T06:54:43;0.93;;;0.30;;
40288;SDS011;28991;52.028;5.526;2023-04-24T06:57:08;1.05;;;0.40;;
40288;SDS011;28991;52.028;5.526;2023-04-24T06:59:35;0.60;;;0.40;;
40288;SDS011;28991;52.028;5.526;2023-04-24T07:02:01;0.35;;;0.30;;
40288;SDS011;28991;52.028;5.526;2023-04-24T07:04:28;0.30;;;0.30;;
40288;SDS011;28991;52.028;5.526;2023-04-24T07:06:54;0.65;;;0.30;;
40288;SDS011;28991;52.028;5.526;2023-04-24T07:09:20;0.68;;;0.40;;
40288;SDS011;28991;52.028;5.526;2023-04-24T07:11:48;1.05;;;0.22;;
40288;SDS011;28991;52.028;5.526;2023-04-24T07:14:14;1.70;;;0.40;;
40288;SDS011;28991;52.028;5.526;2023-04-24T07:16:40;0.60;;;0.45;;
40288;SDS011;28991;52.028;5.526;2023-04-24T07:19:07;0.73;;;0.47;;
40288;SDS011;28991;52.028;5.526;2023-04-24T07:21:32;1.55;;;0.73;;
40288;SDS011;28991;52.028;5.526;2023-04-24T07:23:58;1.27;;;0.40;;
40288;SDS011;28991;52.028;5.526;2023-04-24T07:26:24;1.17;;;0.40;;
40288;SDS011;28991;52.028;5.526;2023-04-24T07:28:50;1.83;;;0.55;;
40288;SDS011;28991;52.028;5.526;2023-04-24T07:31:16;1.13;;;0.40;;
40288;SDS011;28991;52.028;5.526;2023-04-24T07:33:42;0.80;;;0.63;;
40288;SDS011;28991;52.028;5.526;2023-04-24T07:36:07;1.42;;;0.60;;
40288;SDS011;28991;52.028;5.526;2023-04-24T07:38:33;0.52;;;0.52;;
40288;SDS011;28991;52.028;5.526;2023-04-24T07:40:58;1.33;;;0.50;;
40288;SDS011;28991;52.028;5.526;2023-04-24T07:43:24;2.20;;;0.90;;
40288;SDS011;28991;52.028;5.526;2023-04-24T07:45:50;1.42;;;0.60;;
40288;SDS011;28991;52.028;5.526;2023-04-24T07:48:16;3.35;;;0.80;;
40288;SDS011;28991;52.028;5.526;2023-04-24T07:50:42;0.60;;;0.60;;
40288;SDS011;28991;52.028;5.526;2023-04-24T07:53:08;0.65;;;0.57;;
40288;SDS011;28991;52.028;5.526;2023-04-24T07:55:34;0.50;;;0.47;;
40288;SDS011;28991;52.028;5.526;2023-04-24T07:58:00;0.65;;;0.52;;
40288;SDS011;28991;52.028;5.526;2023-04-24T08:00:26;0.75;;;0.60;;
40288;SDS011;28991;52.028;5.526;2023-04-24T08:02:51;0.40;;;0.40;;
40288;SDS011;28991;52.028;5.526;2023-04-24T08:05:17;0.50;;;0.50;;
40288;SDS011;28991;52.028;5.526;2023-04-24T08:07:43;0.73;;;0.55;;
40288;SDS011;28991;52.028;5.526;2023-04-24T08:10:11;1.73;;;0.95;;
40288;SDS011;28991;52.028;5.526;2023-04-24T08:12:37;1.02;;;0.65;;
40288;SDS011;28991;52.028;5.526;2023-04-24T08:15:03;0.70;;;0.70;;
40288;SDS011;28991;52.028;5.526;2023-04-24T08:17:29;1.25;;;0.80;;
40288;SDS011;28991;52.028;5.526;2023-04-24T08:19:55;0.60;;;0.60;;
40288;SDS011;28991;52.028;5.526;2023-04-24T08:22:26;0.50;;;0.50;;
40288;SDS011;28991;52.028;5.526;2023-04-24T08:24:52;2.20;;;0.90;;
40288;SDS011;28991;52.028;5.526;2023-04-24T08:27:18;0.98;;;0.70;;
40288;SDS011;28991;52.028;5.526;2023-04-24T08:29:44;1.10;;;0.80;;
40288;SDS011;28991;52.028;5.526;2023-04-24T08:32:09;0.93;;;0.50;;
40288;SDS011;28991;52.028;5.526;2023-04-24T08:34:35;1.60;;;0.88;;
40288;SDS011;28991;52.028;5.526;2023-04-24T08:37:00;0.82;;;0.73;;
40288;SDS011;28991;52.028;5.526;2023-04-24T08:39:27;0.60;;;0.60;;
40288;SDS011;28991;52.028;5.526;2023-04-24T08:41:56;0.90;;;0.73;;
40288;SDS011;28991;52.028;5.526;2023-04-24T08:44:21;1.92;;;0.90;;
40288;SDS011;28991;52.028;5.526;2023-04-24T08:46:47;2.88;;;0.82;;
40288;SDS011;28991;52.028;5.526;2023-04-24T08:49:14;0.95;;;0.73;;
40288;SDS011;28991;52.028;5.526;2023-04-24T08:51:43;1.20;;;0.77;;
40288;SDS011;28991;52.028;5.526;2023-04-24T08:54:10;1.98;;;0.70;;
40288;SDS011;28991;52.028;5.526;2023-04-24T08:56:37;1.02;;;0.70;;
40288;SDS011;28991;52.028;5.526;2023-04-24T08:59:05;0.75;;;0.73;;
40288;SDS011;28991;52.028;5.526;2023-04-24T09:01:32;1.98;;;0.85;;
40288;SDS011;28991;52.028;5.526;2023-04-24T09:04:02;0.70;;;0.70;;
40288;SDS011;28991;52.028;5.526;2023-04-24T09:06:29;2.35;;;0.60;;
40288;SDS011;28991;52.028;5.526;2023-04-24T09:08:57;2.95;;;0.95;;
40288;SDS011;28991;52.028;5.526;2023-04-24T09:11:25;0.98;;;0.75;;
40288;SDS011;28991;52.028;5.526;2023-04-24T09:13:52;1.00;;;0.80;;
40288;SDS011;28991;52.028;5.526;2023-04-24T09:16:19;1.48;;;0.73;;
40288;SDS011;28991;52.028;5.526;2023-04-24T09:18:45;1.20;;;1.10;;
40288;SDS011;28991;52.028;5.526;2023-04-24T09:21:11;0.60;;;0.60;;
40288;SDS011;28991;52.028;5.526;2023-04-24T09:23:36;0.60;;;0.60;;
40288;SDS011;28991;52.028;5.526;2023-04-24T09:26:03;0.80;;;0.52;;
40288;SDS011;28991;52.028;5.526;2023-04-24T09:28:32;0.68;;;0.50;;
40288;SDS011;28991;52.028;5.526;2023-04-24T09:33:34;0.63;;;0.45;;
40288;SDS011;28991;52.028;5.526;2023-04-24T09:35:59;1.95;;;0.60;;
40288;SDS011;28991;52.028;5.526;2023-04-24T09:38:35;2.15;;;0.63;;
40288;SDS011;28991;52.028;5.526;2023-04-24T09:41:03;2.05;;;0.75;;
40288;SDS011;28991;52.028;5.526;2023-04-24T09:43:33;3.00;;;0.75;;
40288;SDS011;28991;52.028;5.526;2023-04-24T09:46:04;1.23;;;0.50;;
40288;SDS011;28991;52.028;5.526;2023-04-24T09:48:34;1.90;;;0.93;;
40288;SDS011;28991;52.028;5.526;2023-04-24T09:51:01;1.10;;;0.60;;
40288;SDS011;28991;52.028;5.526;2023-04-24T09:53:29;1.13;;;0.60;;
40288;SDS011;28991;52.028;5.526;2023-04-24T09:55:56;1.83;;;0.90;;
40288;SDS011;28991;52.028;5.526;2023-04-24T09:58:27;2.17;;;0.88;;
40288;SDS011;28991;52.028;5.526;2023-04-24T10:00:54;1.85;;;0.90;;
40288;SDS011;28991;52.028;5.526;2023-04-24T10:03:21;2.33;;;0.80;;
40288;SDS011;28991;52.028;5.526;2023-04-24T10:05:51;0.90;;;0.70;;
40288;SDS011;28991;52.028;5.526;2023-04-24T10:08:17;3.85;;;0.60;;
40288;SDS011;28991;52.028;5.526;2023-04-24T10:10:43;1.67;;;0.77;;
40288;SDS011;28991;52.028;5.526;2023-04-24T10:13:11;1.58;;;0.75;;
40288;SDS011;28991;52.028;5.526;2023-04-24T10:15:37;0.98;;;0.70;;
40288;SDS011;28991;52.028;5.526;2023-04-24T10:18:05;1.58;;;0.82;;
40288;SDS011;28991;52.028;5.526;2023-04-24T10:20:33;2.45;;;0.65;;
40288;SDS011;28991;52.028;5.526;2023-04-24T10:22:59;2.33;;;0.70;;
40288;SDS011;28991;52.028;5.526;2023-04-24T10:25:27;1.33;;;0.82;;
40288;SDS011;28991;52.028;5.526;2023-04-24T10:27:57;1.20;;;0.90;;
40288;SDS011;28991;52.028;5.526;2023-04-24T10:30:25;2.03;;;0.80;;
40288;SDS011;28991;52.028;5.526;2023-04-24T10:32:52;1.67;;;0.77;;
40288;SDS011;28991;52.028;5.526;2023-04-24T10:35:18;1.23;;;0.70;;
40288;SDS011;28991;52.028;5.526;2023-04-24T10:37:52;1.25;;;0.52;;
40288;SDS011;28991;52.028;5.526;2023-04-24T10:40:26;2.42;;;0.65;;
40288;SDS011;28991;52.028;5.526;2023-04-24T10:42:54;0.60;;;0.60;;
40288;SDS011;28991;52.028;5.526;2023-04-24T10:45:22;0.80;;;0.57;;
40288;SDS011;28991;52.028;5.526;2023-04-24T10:47:52;0.98;;;0.60;;
40288;SDS011;28991;52.028;5.526;2023-04-24T10:50:26;1.48;;;0.75;;
40288;SDS011;28991;52.028;5.526;2023-04-24T10:52:53;3.53;;;0.70;;
40288;SDS011;28991;52.028;5.526;2023-04-24T10:58:15;3.45;;;0.80;;
40288;SDS011;28991;52.028;5.526;2023-04-24T11:00:42;1.73;;;0.85;;
40288;SDS011;28991;52.028;5.526;2023-04-24T11:03:25;1.30;;;0.70;;
40288;SDS011;28991;52.028;5.526;2023-04-24T11:08:21;1.67;;;0.80;;
40288;SDS011;28991;52.028;5.526;2023-04-24T11:11:00;1.38;;;1.00;;
40288;SDS011;28991;52.028;5.526;2023-04-24T11:21:57;2.80;;;1.23;;
40288;SDS011;28991;52.028;5.526;2023-04-24T11:24:49;3.65;;;1.50;;
40288;SDS011;28991;52.028;5.526;2023-04-24T11:27:18;7.20;;;1.60;;
40288;SDS011;28991;52.028;5.526;2023-04-24T11:29:46;3.63;;;1.65;;
40288;SDS011;28991;52.028;5.526;2023-04-24T11:34:55;3.60;;;1.42;;
40288;SDS011;28991;52.028;5.526;2023-04-24T11:37:23;4.97;;;1.42;;
40288;SDS011;28991;52.028;5.526;2023-04-24T11:39:53;5.10;;;1.23;;
40288;SDS011;28991;52.028;5.526;2023-04-24T11:42:19;4.28;;;1.20;;
40288;SDS011;28991;52.028;5.526;2023-04-24T11:44:46;3.20;;;0.90;;
40288;SDS011;28991;52.028;5.526;2023-04-24T11:47:14;5.93;;;1.00;;
40288;SDS011;28991;52.028;5.526;2023-04-24T11:49:41;5.75;;;0.95;;
40288;SDS011;28991;52.028;5.526;2023-04-24T11:52:07;2.42;;;1.10;;
40288;SDS011;28991;52.028;5.526;2023-04-24T11:54:33;3.55;;;0.85;;
40288;SDS011;28991;52.028;5.526;2023-04-24T11:56:58;2.75;;;0.88;;
40288;SDS011;28991;52.028;5.526;2023-04-24T11:59:28;1.15;;;0.70;;
40288;SDS011;28991;52.028;5.526;2023-04-24T12:01:54;2.10;;;0.70;;
40288;SDS011;28991;52.028;5.526;2023-04-24T12:04:19;2.58;;;0.57;;
40288;SDS011;28991;52.028;5.526;2023-04-24T12:07:01;2.40;;;0.82;;
40288;SDS011;28991;52.028;5.526;2023-04-24T12:09:40;2.05;;;0.60;;
40288;SDS011;28991;52.028;5.526;2023-04-24T12:12:07;5.32;;;0.93;;
40288;SDS011;28991;52.028;5.526;2023-04-24T12:14:33;2.85;;;0.50;;
40288;SDS011;28991;52.028;5.526;2023-04-24T12:17:06;2.03;;;0.50;;
40288;SDS011;28991;52.028;5.526;2023-04-24T12:19:32;0.55;;;0.47;;
40288;SDS011;28991;52.028;5.526;2023-04-24T12:22:01;0.93;;;0.40;;
40288;SDS011;28991;52.028;5.526;2023-04-24T12:24:29;1.50;;;0.45;;
40288;SDS011;28991;52.028;5.526;2023-04-24T12:26:56;1.88;;;0.70;;
40288;SDS011;28991;52.028;5.526;2023-04-24T12:29:22;1.58;;;0.70;;
40288;SDS011;28991;52.028;5.526;2023-04-24T12:31:49;3.10;;;0.70;;
40288;SDS011;28991;52.028;5.526;2023-04-24T12:34:18;1.52;;;0.70;;
40288;SDS011;28991;52.028;5.526;2023-04-24T12:36:48;1.92;;;1.08;;
40288;SDS011;28991;52.028;5.526;2023-04-24T12:39:23;4.97;;;1.13;;
40288;SDS011;28991;52.028;5.526;2023-04-24T12:41:58;4.22;;;0.82;;
40288;SDS011;28991;52.028;5.526;2023-04-24T12:46:57;2.97;;;0.82;;
40288;SDS011;28991;52.028;5.526;2023-04-24T12:49:23;1.23;;;0.70;;
40288;SDS011;28991;52.028;5.526;2023-04-24T12:51:48;1.15;;;0.68;;
40288;SDS011;28991;52.028;5.526;2023-04-24T12:54:14;1.05;;;0.60;;
40288;SDS011;28991;52.028;5.526;2023-04-24T12:56:39;4.22;;;0.88;;
40288;SDS011;28991;52.028;5.526;2023-04-24T12:59:05;0.85;;;0.40;;
40288;SDS011;28991;52.028;5.526;2023-04-24T13:01:31;3.08;;;0.60;;
40288;SDS011;28991;52.028;5.526;2023-04-24T13:03:57;4.53;;;0.55;;
40288;SDS011;28991;52.028;5.526;2023-04-24T13:06:22;2.10;;;0.70;;
40288;SDS011;28991;52.028;5.526;2023-04-24T13:08:48;3.75;;;0.50;;
40288;SDS011;28991;52.028;5.526;2023-04-24T13:11:13;3.55;;;0.80;;
40288;SDS011;28991;52.028;5.526;2023-04-24T13:13:39;1.80;;;0.65;;
40288;SDS011;28991;52.028;5.526;2023-04-24T13:16:05;4.55;;;0.82;;
40288;SDS011;28991;52.028;5.526;2023-04-24T13:18:31;2.03;;;0.65;;
40288;SDS011;28991;52.028;5.526;2023-04-24T13:20:56;5.32;;;1.27;;
40288;SDS011;28991;52.028;5.526;2023-04-24T13:23:22;1.25;;;0.63;;
40288;SDS011;28991;52.028;5.526;2023-04-24T13:25:48;2.50;;;0.80;;
40288;SDS011;28991;52.028;5.526;2023-04-24T13:28:13;6.38;;;0.70;;
40288;SDS011;28991;52.028;5.526;2023-04-24T13:30:39;2.38;;;0.80;;
40288;SDS011;28991;52.028;5.526;2023-04-24T13:33:04;2.90;;;0.70;;
40288;SDS011;28991;52.028;5.526;2023-04-24T13:35:30;2.33;;;0.85;;
40288;SDS011;28991;52.028;5.526;2023-04-24T13:37:56;0.80;;;0.63;;
40288;SDS011;28991;52.028;5.526;2023-04-24T13:40:23;1.77;;;0.57;;
40288;SDS011;28991;52.028;5.526;2023-04-24T13:42:48;4.13;;;1.05;;
40288;SDS011;28991;52.028;5.526;2023-04-24T13:45:14;1.73;;;0.77;;
40288;SDS011;28991;52.028;5.526;2023-04-24T13:47:39;1.42;;;0.50;;
40288;SDS011;28991;52.028;5.526;2023-04-24T13:50:08;3.22;;;0.63;;
40288;SDS011;28991;52.028;5.526;2023-04-24T13:52:34;1.45;;;0.75;;
40288;SDS011;28991;52.028;5.526;2023-04-24T13:55:00;2.53;;;0.60;;
40288;SDS011;28991;52.028;5.526;2023-04-24T13:57:26;1.63;;;0.75;;
40288;SDS011;28991;52.028;5.526;2023-04-24T13:59:53;1.02;;;0.57;;
40288;SDS011;28991;52.028;5.526;2023-04-24T14:02:20;2.17;;;0.60;;
40288;SDS011;28991;52.028;5.526;2023-04-24T14:04:46;1.17;;;0.70;;
40288;SDS011;28991;52.028;5.526;2023-04-24T14:07:13;0.95;;;0.50;;
40288;SDS011;28991;52.028;5.526;2023-04-24T14:09:38;1.35;;;0.60;;
40288;SDS011;28991;52.028;5.526;2023-04-24T14:12:04;1.58;;;0.70;;
40288;SDS011;28991;52.028;5.526;2023-04-24T14:14:30;1.55;;;0.65;;
40288;SDS011;28991;52.028;5.526;2023-04-24T14:16:56;2.65;;;0.50;;
40288;SDS011;28991;52.028;5.526;2023-04-24T14:19:22;1.50;;;0.60;;
40288;SDS011;28991;52.028;5.526;2023-04-24T14:21:47;1.23;;;0.70;;
40288;SDS011;28991;52.028;5.526;2023-04-24T14:24:13;1.58;;;0.63;;
40288;SDS011;28991;52.028;5.526;2023-04-24T14:26:38;1.13;;;0.75;;
40288;SDS011;28991;52.028;5.526;2023-04-24T14:29:04;1.13;;;0.60;;
40288;SDS011;28991;52.028;5.526;2023-04-24T14:31:30;1.73;;;0.90;;
40288;SDS011;28991;52.028;5.526;2023-04-24T14:33:56;1.25;;;0.95;;
40288;SDS011;28991;52.028;5.526;2023-04-24T14:36:22;1.10;;;0.70;;
40288;SDS011;28991;52.028;5.526;2023-04-24T14:38:48;0.90;;;0.45;;
40288;SDS011;28991;52.028;5.526;2023-04-24T14:41:14;0.80;;;0.70;;
40288;SDS011;28991;52.028;5.526;2023-04-24T14:43:40;1.30;;;0.60;;
40288;SDS011;28991;52.028;5.526;2023-04-24T14:46:05;1.40;;;0.57;;
40288;SDS011;28991;52.028;5.526;2023-04-24T14:48:31;0.60;;;0.50;;
40288;SDS011;28991;52.028;5.526;2023-04-24T14:50:57;1.05;;;0.50;;
40288;SDS011;28991;52.028;5.526;2023-04-24T14:53:23;1.30;;;0.82;;
40288;SDS011;28991;52.028;5.526;2023-04-24T14:55:49;0.80;;;0.60;;
40288;SDS011;28991;52.028;5.526;2023-04-24T14:58:14;2.08;;;0.60;;
40288;SDS011;28991;52.028;5.526;2023-04-24T15:00:40;0.65;;;0.60;;
40288;SDS011;28991;52.028;5.526;2023-04-24T15:03:05;0.90;;;0.50;;
40288;SDS011;28991;52.028;5.526;2023-04-24T15:05:32;0.70;;;0.60;;